createdAt,value
2023-01-31T00:03:00.925Z,4.30
2023-01-31T00:07:02.511Z,4.30
2023-01-31T00:11:04.174Z,4.30
2023-01-31T00:15:05.907Z,4.30
2023-01-31T00:19:07.523Z,4.30
2023-01-31T00:23:09.096Z,4.20
2023-01-31T00:27:10.708Z,4.20
2023-01-31T00:31:13.343Z,4.20
2023-01-31T00:35:15.053Z,4.20
2023-01-31T00:39:16.652Z,4.10
2023-01-31T00:43:18.281Z,4.10
2023-01-31T00:47:19.873Z,4.00
2023-01-31T00:51:23.017Z,4.10
2023-01-31T00:55:25.509Z,4.10
2023-01-31T00:59:27.103Z,4.00
2023-01-31T01:03:28.658Z,3.90
2023-01-31T01:07:30.241Z,3.80
2023-01-31T01:11:32.605Z,3.80
2023-01-31T01:15:37.178Z,3.70
2023-01-31T01:19:38.927Z,3.70
2023-01-31T01:23:40.901Z,3.60
2023-01-31T01:27:42.498Z,3.60
2023-01-31T01:31:44.239Z,3.60
2023-01-31T01:35:45.891Z,3.60
2023-01-31T01:39:50.614Z,3.60
2023-01-31T01:43:52.409Z,3.70
2023-01-31T01:47:55.974Z,3.70
2023-01-31T01:52:00.314Z,3.70
2023-01-31T01:56:08.430Z,3.60
2023-01-31T02:00:13.083Z,3.60
2023-01-31T02:04:16.751Z,3.60
2023-01-31T02:08:19.529Z,3.60
2023-01-31T02:12:21.229Z,3.50
2023-01-31T02:16:22.911Z,3.40
2023-01-31T02:20:44.433Z,3.50
2023-01-31T02:24:49.239Z,3.50
2023-01-31T02:29:10.723Z,3.40
2023-01-31T02:33:12.284Z,3.40
2023-01-31T02:37:27.934Z,3.40
2023-01-31T02:41:29.505Z,3.40
2023-01-31T02:45:49.761Z,3.30
2023-01-31T02:50:03.593Z,3.30
2023-01-31T02:54:09.864Z,3.10
2023-01-31T02:58:13.373Z,3.10
2023-01-31T03:02:15.129Z,3.00
2023-01-31T03:06:25.547Z,3.00
2023-01-31T03:10:39.339Z,2.90
2023-01-31T03:14:43.942Z,2.90
2023-01-31T03:19:13.757Z,2.80
2023-01-31T03:23:20.312Z,2.80
2023-01-31T03:27:22.769Z,2.80
2023-01-31T03:31:35.724Z,2.80
2023-01-31T03:35:38.870Z,2.80
2023-01-31T03:39:46.874Z,2.90
2023-01-31T03:43:58.855Z,2.80
2023-01-31T03:48:03.468Z,2.80
2023-01-31T03:52:06.549Z,2.80
2023-01-31T03:56:13.476Z,2.80
2023-01-31T04:00:16.504Z,2.90
2023-01-31T04:04:20.836Z,2.90
2023-01-31T04:08:22.590Z,2.90
2023-01-31T04:16:50.493Z,2.80
2023-01-31T04:20:52.113Z,2.60
2023-01-31T04:24:56.953Z,2.70
2023-01-31T04:28:58.566Z,2.60
2023-01-31T04:33:00.205Z,2.60
2023-01-31T04:37:02.462Z,2.70
2023-01-31T04:41:04.263Z,2.70
2023-01-31T04:45:06.586Z,2.80
2023-01-31T04:49:08.898Z,2.60
2023-01-31T04:53:10.611Z,2.60
2023-01-31T04:57:12.178Z,2.70
2023-01-31T05:01:14.144Z,2.80
2023-01-31T05:05:15.797Z,2.70
2023-01-31T05:09:18.096Z,2.70
2023-01-31T05:13:19.764Z,2.80
2023-01-31T05:17:28.776Z,2.80
2023-01-31T05:21:30.360Z,2.80
2023-01-31T05:25:32.441Z,2.90
2023-01-31T05:29:34.106Z,2.80
2023-01-31T05:33:36.167Z,2.90
2023-01-31T05:37:37.897Z,2.80
2023-01-31T05:41:39.845Z,2.80
2023-01-31T05:45:41.483Z,2.80
2023-01-31T05:49:43.117Z,2.90
2023-01-31T05:53:44.760Z,2.90
2023-01-31T05:57:46.472Z,3.00
2023-01-31T06:01:48.123Z,3.00
2023-01-31T06:05:49.691Z,3.00
2023-01-31T06:09:51.235Z,3.10
2023-01-31T06:13:54.652Z,3.00
2023-01-31T06:17:56.340Z,3.00
2023-01-31T06:21:57.911Z,3.00
2023-01-31T06:25:59.544Z,3.00
2023-01-31T06:30:01.773Z,3.00
2023-01-31T06:34:03.680Z,3.00
2023-01-31T06:38:09.756Z,3.00
2023-01-31T06:42:11.331Z,3.10
2023-01-31T06:46:13.031Z,3.20
2023-01-31T06:50:14.737Z,3.10
2023-01-31T06:54:16.322Z,3.20
2023-01-31T06:58:20.677Z,3.10
2023-01-31T07:02:25.402Z,3.10
2023-01-31T07:06:27.335Z,3.20
2023-01-31T07:10:29.049Z,3.30
2023-01-31T07:14:31.344Z,3.30
2023-01-31T07:18:33.226Z,3.20
2023-01-31T07:22:34.897Z,3.20
2023-01-31T07:26:36.553Z,3.30
2023-01-31T07:30:38.427Z,3.20
2023-01-31T07:34:40.165Z,3.40
2023-01-31T07:38:42.133Z,3.50
2023-01-31T07:42:43.789Z,3.60
2023-01-31T07:46:45.517Z,3.60
2023-01-31T07:50:47.123Z,3.80
2023-01-31T07:54:49.138Z,3.90
2023-01-31T07:58:50.834Z,4.00
2023-01-31T08:03:11.176Z,4.00
2023-01-31T08:07:15.291Z,4.10
2023-01-31T08:11:16.876Z,4.10
2023-01-31T08:15:19.002Z,4.20
2023-01-31T08:19:21.291Z,4.20
2023-01-31T08:23:22.923Z,4.30
2023-01-31T08:27:24.652Z,4.20
2023-01-31T08:31:27.716Z,4.30
2023-01-31T08:35:29.413Z,4.40
2023-01-31T08:39:31.183Z,4.40
2023-01-31T08:43:39.383Z,4.50
2023-01-31T08:47:47.555Z,4.60
2023-01-31T08:51:49.153Z,4.60
2023-01-31T08:55:50.782Z,4.70
2023-01-31T08:59:52.533Z,4.80
2023-01-31T09:03:57.110Z,4.80
2023-01-31T09:07:58.958Z,4.80
2023-01-31T09:12:00.631Z,4.80
2023-01-31T09:16:02.888Z,4.80
2023-01-31T09:20:08.736Z,4.90
2023-01-31T09:24:10.341Z,4.90
2023-01-31T09:28:11.933Z,5.00
2023-01-31T09:32:13.632Z,5.10
2023-01-31T09:36:20.068Z,5.10
2023-01-31T09:40:26.497Z,5.00
2023-01-31T09:44:30.776Z,5.00
2023-01-31T09:48:35.435Z,5.00
2023-01-31T09:52:37.917Z,5.00
2023-01-31T09:56:41.563Z,5.10
2023-01-31T10:00:49.473Z,5.10
2023-01-31T10:04:57.442Z,5.20
2023-01-31T10:09:03.192Z,5.20
2023-01-31T10:13:10.372Z,5.20
2023-01-31T10:17:15.871Z,5.20
2023-01-31T10:21:19.368Z,5.30
2023-01-31T10:25:28.340Z,5.30
2023-01-31T10:29:52.922Z,5.50
2023-01-31T10:34:04.735Z,5.50
2023-01-31T10:38:15.283Z,5.50
2023-01-31T10:42:55.625Z,5.50
2023-01-31T10:46:58.625Z,5.50
2023-01-31T10:51:08.588Z,5.60
2023-01-31T10:55:13.296Z,5.60
2023-01-31T10:59:26.225Z,5.70
2023-01-31T11:03:28.226Z,5.80
2023-01-31T11:07:31.452Z,5.80
2023-01-31T11:11:52.044Z,5.70
2023-01-31T11:15:54.349Z,5.80
2023-01-31T11:19:56.277Z,5.90
2023-01-31T11:24:15.367Z,5.90
2023-01-31T11:28:25.412Z,6.00
2023-01-31T11:32:30.974Z,6.00
2023-01-31T11:36:41.052Z,6.20
2023-01-31T11:40:42.908Z,6.40
2023-01-31T11:45:01.591Z,6.30
2023-01-31T11:49:10.216Z,6.30
2023-01-31T11:58:15.425Z,6.40
2023-01-31T12:02:27.428Z,6.40
2023-01-31T12:06:33.671Z,6.20
2023-01-31T12:10:43.613Z,6.30
2023-01-31T12:14:47.514Z,6.30
2023-01-31T12:18:58.239Z,6.40
2023-01-31T12:23:08.083Z,6.40
2023-01-31T12:27:28.814Z,6.50
2023-01-31T12:31:30.485Z,6.50
2023-01-31T12:35:51.245Z,6.40
2023-01-31T12:39:52.923Z,6.60
2023-01-31T12:43:54.792Z,6.50
2023-01-31T12:48:10.358Z,6.50
2023-01-31T12:52:30.859Z,6.60
2023-01-31T12:56:45.182Z,6.70
2023-01-31T13:00:58.348Z,6.70
2023-01-31T13:05:14.584Z,6.60
2023-01-31T13:09:22.529Z,6.70
2023-01-31T13:13:29.091Z,6.90
2023-01-31T13:17:32.798Z,6.90
2023-01-31T13:21:38.617Z,6.90
2023-01-31T13:25:43.620Z,6.90
2023-01-31T13:30:02.943Z,6.80
2023-01-31T13:34:07.041Z,6.80
2023-01-31T13:38:19.100Z,6.90
2023-01-31T13:42:20.739Z,6.90
2023-01-31T13:46:24.709Z,7.10
2023-01-31T13:50:32.668Z,7.10
2023-01-31T13:54:40.926Z,7.10
2023-01-31T13:58:43.333Z,7.30
2023-01-31T14:02:59.567Z,7.20
2023-01-31T14:07:10.301Z,7.20
2023-01-31T14:11:15.446Z,7.20
2023-01-31T14:15:45.739Z,7.30
2023-01-31T14:19:47.512Z,7.30
2023-01-31T14:23:49.408Z,7.20
2023-01-31T14:27:51.085Z,7.20
2023-01-31T14:31:54.705Z,7.20
2023-01-31T14:35:59.464Z,7.00
2023-01-31T14:40:04.090Z,6.80
2023-01-31T14:44:17.854Z,6.80
2023-01-31T14:48:48.848Z,6.70
2023-01-31T14:52:53.450Z,6.80
2023-01-31T14:57:06.530Z,6.70
2023-01-31T15:01:08.416Z,6.70
2023-01-31T15:05:15.575Z,6.60
2023-01-31T15:09:17.646Z,6.60
2023-01-31T15:13:38.108Z,6.50
2023-01-31T15:17:40.660Z,6.50
2023-01-31T15:21:54.317Z,6.50
2023-01-31T15:25:57.180Z,6.50
2023-01-31T15:29:58.800Z,6.50
2023-01-31T15:34:04.251Z,6.50
2023-01-31T15:38:24.637Z,6.50
2023-01-31T15:42:27.736Z,6.50
2023-01-31T15:46:29.519Z,6.50
2023-01-31T15:50:32.759Z,6.50
2023-01-31T15:54:34.605Z,6.40
2023-01-31T15:58:37.447Z,6.40
2023-01-31T16:02:39.476Z,6.40
2023-01-31T16:06:41.109Z,6.30
2023-01-31T16:10:43.595Z,6.40
2023-01-31T16:14:47.466Z,6.40
2023-01-31T16:18:50.495Z,6.30
2023-01-31T16:22:56.200Z,6.40
2023-01-31T16:27:03.867Z,6.30
2023-01-31T16:31:13.202Z,6.30
2023-01-31T16:35:24.941Z,6.30
2023-01-31T16:39:29.620Z,6.10
2023-01-31T16:43:32.356Z,6.10
2023-01-31T16:47:39.809Z,6.10
2023-01-31T16:51:42.636Z,6.20
2023-01-31T16:55:45.162Z,6.20
2023-01-31T16:59:53.663Z,6.10
2023-01-31T17:04:13.379Z,6.20
2023-01-31T17:08:16.767Z,6.20
2023-01-31T17:12:20.760Z,6.20
2023-01-31T17:16:27.146Z,6.20
2023-01-31T17:20:28.713Z,6.20
2023-01-31T17:24:30.325Z,6.20
2023-01-31T17:28:31.896Z,6.30
2023-01-31T17:32:33.592Z,6.20
2023-01-31T17:36:35.897Z,6.40
2023-01-31T17:40:38.944Z,6.30
2023-01-31T17:44:40.524Z,6.30
2023-01-31T17:48:42.420Z,6.30
2023-01-31T17:52:44.116Z,6.30
2023-01-31T17:56:45.736Z,6.30
2023-01-31T18:00:47.682Z,6.30
2023-01-31T18:04:49.336Z,6.30
2023-01-31T18:08:52.426Z,6.30
2023-01-31T18:12:57.901Z,6.20
2023-01-31T18:16:59.715Z,6.20
2023-01-31T18:21:02.481Z,6.30
2023-01-31T18:25:05.236Z,6.10
2023-01-31T18:29:06.879Z,6.10
2023-01-31T18:33:08.576Z,6.10
2023-01-31T18:37:16.652Z,6.10
2023-01-31T18:41:19.681Z,6.20
2023-01-31T18:45:21.475Z,6.20
2023-01-31T18:49:23.294Z,6.10
2023-01-31T18:53:24.904Z,6.20
2023-01-31T18:57:26.514Z,6.20
2023-01-31T19:01:31.037Z,6.20
2023-01-31T19:05:32.682Z,6.30
2023-01-31T19:09:35.324Z,6.30
2023-01-31T19:13:38.004Z,6.30
2023-01-31T19:17:39.632Z,6.30
2023-01-31T19:21:41.715Z,6.30
2023-01-31T19:25:43.918Z,6.40
2023-01-31T19:29:45.559Z,6.30
2023-01-31T19:33:49.024Z,6.30
2023-01-31T19:37:50.653Z,6.30
2023-01-31T19:41:52.615Z,6.40
2023-01-31T19:45:54.320Z,6.40
2023-01-31T19:49:55.966Z,6.30
2023-01-31T19:53:59.047Z,6.30
2023-01-31T19:58:00.719Z,6.20
2023-01-31T20:02:02.398Z,6.30
2023-01-31T20:06:14.572Z,6.40
2023-01-31T20:10:16.235Z,6.40
2023-01-31T20:14:17.888Z,6.20
2023-01-31T20:18:20.334Z,6.20
2023-01-31T20:22:22.942Z,6.30
2023-01-31T20:26:24.765Z,6.30
2023-01-31T20:30:26.378Z,6.30
2023-01-31T20:34:27.963Z,6.20
2023-01-31T20:38:30.733Z,6.10
2023-01-31T20:42:32.599Z,6.00
2023-01-31T20:46:34.215Z,5.90
2023-01-31T20:50:35.883Z,5.80
2023-01-31T20:54:37.473Z,5.80
2023-01-31T20:58:40.235Z,5.70
2023-01-31T21:02:41.883Z,5.60
2023-01-31T21:06:43.523Z,5.60
2023-01-31T21:10:48.660Z,5.60
2023-01-31T21:14:50.385Z,5.70
2023-01-31T21:18:52.107Z,5.60
2023-01-31T21:22:53.736Z,5.70
2023-01-31T21:26:55.315Z,5.70
2023-01-31T21:30:58.318Z,5.70
2023-01-31T21:35:00.602Z,5.80
2023-01-31T21:39:02.749Z,5.70
2023-01-31T21:43:04.362Z,5.80
2023-01-31T21:47:05.963Z,5.80
2023-01-31T21:51:08.842Z,6.00
2023-01-31T21:55:10.479Z,5.90
2023-01-31T21:59:12.131Z,6.00
2023-01-31T22:03:13.755Z,6.10
2023-01-31T22:07:15.412Z,6.00
2023-01-31T22:11:17.082Z,6.10
2023-01-31T22:19:34.525Z,6.00
2023-01-31T22:23:36.871Z,6.00
2023-01-31T22:27:38.433Z,6.10
2023-01-31T22:31:42.506Z,6.10
2023-01-31T22:35:44.514Z,6.10
2023-01-31T22:39:46.074Z,6.10
2023-01-31T22:43:48.837Z,6.10
2023-01-31T22:47:50.439Z,6.10
2023-01-31T22:51:52.001Z,6.10
2023-01-31T22:55:53.756Z,6.10
2023-01-31T22:59:55.329Z,6.10
2023-01-31T23:03:58.063Z,6.10
2023-01-31T23:07:59.781Z,6.10
2023-01-31T23:12:01.368Z,6.10
2023-01-31T23:16:03.749Z,6.10
2023-01-31T23:20:06.897Z,6.00
2023-01-31T23:24:08.804Z,6.00
2023-01-31T23:28:10.449Z,6.00
2023-01-31T23:32:12.031Z,6.00
2023-01-31T23:36:13.583Z,6.00
2023-01-31T23:40:15.221Z,6.10
2023-01-31T23:44:16.865Z,6.00
2023-01-31T23:48:18.509Z,6.00
2023-01-31T23:52:20.075Z,6.00
2023-01-31T23:56:21.670Z,6.00
